createdAt,value
2018-05-29T00:01:13.238Z,2.60
2018-05-29T00:03:41.455Z,2.50
2018-05-29T00:06:08.886Z,2.87
2018-05-29T00:08:36.327Z,2.85
2018-05-29T00:11:03.794Z,2.60
2018-05-29T00:13:31.987Z,2.40
2018-05-29T00:16:00.215Z,2.70
2018-05-29T00:18:27.663Z,2.70
2018-05-29T00:20:55.879Z,3.20
2018-05-29T00:23:23.326Z,3.10
2018-05-29T00:25:50.782Z,2.80
2018-05-29T00:28:18.223Z,2.97
2018-05-29T00:30:45.666Z,2.70
2018-05-29T00:33:13.110Z,2.50
2018-05-29T00:35:40.556Z,2.83
2018-05-29T00:38:07.995Z,2.60
2018-05-29T00:40:35.447Z,2.90
2018-05-29T00:43:02.878Z,2.60
2018-05-29T00:45:31.099Z,2.80
2018-05-29T00:47:58.539Z,2.70
2018-05-29T00:50:26.007Z,2.60
2018-05-29T00:52:53.442Z,2.70
2018-05-29T00:55:32.742Z,2.60
2018-05-29T00:58:00.185Z,2.40
2018-05-29T01:00:27.614Z,2.70
2018-05-29T01:02:55.062Z,2.60
2018-05-29T01:05:22.560Z,2.27
2018-05-29T01:07:50.006Z,2.80
2018-05-29T01:10:17.447Z,2.80
2018-05-29T01:12:44.903Z,2.35
2018-05-29T01:15:12.352Z,2.90
2018-05-29T01:17:39.807Z,2.90
2018-05-29T01:20:08.023Z,2.58
2018-05-29T01:22:36.243Z,2.90
2018-05-29T01:25:03.703Z,2.92
2018-05-29T01:27:31.918Z,2.65
2018-05-29T01:29:59.360Z,2.40
2018-05-29T01:32:27.583Z,2.80
2018-05-29T01:34:55.018Z,2.90
2018-05-29T01:37:22.457Z,2.40
2018-05-29T01:39:49.894Z,2.60
2018-05-29T01:42:17.349Z,2.40
2018-05-29T01:44:44.844Z,2.95
2018-05-29T01:47:12.242Z,3.40
2018-05-29T01:49:39.718Z,2.60
2018-05-29T01:52:07.162Z,2.58
2018-05-29T01:54:34.609Z,3.05
2018-05-29T01:57:02.822Z,3.10
2018-05-29T01:59:30.278Z,3.00
2018-05-29T02:01:58.486Z,3.50
2018-05-29T02:04:26.029Z,2.40
2018-05-29T02:06:53.383Z,3.40
2018-05-29T02:09:20.836Z,2.28
2018-05-29T02:11:48.266Z,2.80
2018-05-29T02:14:15.710Z,2.80
2018-05-29T02:16:43.163Z,2.60
2018-05-29T02:19:11.375Z,2.60
2018-05-29T02:21:38.808Z,2.50
2018-05-29T02:24:06.249Z,2.50
2018-05-29T02:26:33.687Z,2.60
2018-05-29T02:29:01.122Z,2.40
2018-05-29T02:31:28.555Z,2.50
2018-05-29T02:33:56.773Z,2.00
2018-05-29T02:36:24.202Z,2.53
2018-05-29T02:38:51.638Z,2.70
2018-05-29T02:41:19.078Z,2.70
2018-05-29T02:43:46.518Z,2.70
2018-05-29T02:46:13.975Z,2.62
2018-05-29T02:48:41.422Z,2.22
2018-05-29T02:51:08.889Z,2.60
2018-05-29T02:53:36.318Z,2.60
2018-05-29T02:56:03.753Z,2.30
2018-05-29T02:58:31.186Z,2.20
2018-05-29T03:00:58.625Z,2.40
2018-05-29T03:03:26.062Z,2.20
2018-05-29T03:05:53.506Z,2.60
2018-05-29T03:08:21.718Z,2.50
2018-05-29T03:10:49.923Z,2.80
2018-05-29T03:13:17.358Z,2.60
2018-05-29T03:15:44.806Z,2.40
2018-05-29T03:18:12.237Z,2.40
2018-05-29T03:20:40.448Z,2.30
2018-05-29T03:23:08.646Z,2.30
2018-05-29T03:25:36.873Z,2.40
2018-05-29T03:28:04.301Z,2.40
2018-05-29T03:30:31.733Z,2.30
2018-05-29T03:32:59.183Z,3.00
2018-05-29T03:35:27.388Z,2.60
2018-05-29T03:37:54.825Z,2.30
2018-05-29T03:40:22.262Z,2.70
2018-05-29T03:42:49.713Z,2.40
2018-05-29T03:45:17.141Z,2.80
2018-05-29T03:47:44.582Z,2.40
2018-05-29T03:50:12.791Z,2.70
2018-05-29T03:52:41.002Z,2.90
2018-05-29T03:55:08.453Z,2.40
2018-05-29T03:57:35.885Z,2.40
2018-05-29T04:00:03.327Z,2.00
2018-05-29T04:02:31.538Z,2.40
2018-05-29T04:04:58.995Z,2.90
2018-05-29T04:07:27.207Z,2.70
2018-05-29T04:09:55.418Z,2.60
2018-05-29T04:12:22.917Z,2.50
2018-05-29T04:14:50.354Z,2.23
2018-05-29T04:17:18.553Z,2.20
2018-05-29T04:19:46.758Z,2.83
2018-05-29T04:22:14.958Z,2.55
2018-05-29T04:24:43.180Z,2.70
2018-05-29T04:27:10.614Z,2.80
2018-05-29T04:29:38.062Z,3.30
2018-05-29T04:32:05.494Z,2.75
2018-05-29T04:34:33.707Z,2.75
2018-05-29T04:39:28.186Z,2.72
2018-05-29T04:49:17.368Z,2.60
2018-05-29T04:51:44.806Z,2.97
2018-05-29T04:54:12.391Z,3.23
2018-05-29T04:56:39.838Z,3.90
2018-05-29T04:59:07.274Z,3.00
2018-05-29T08:05:38.754Z,3.90
2018-05-29T08:08:06.197Z,3.40
2018-05-29T08:10:34.404Z,3.50
2018-05-29T08:13:02.607Z,3.67
2018-05-29T08:15:30.038Z,3.20
2018-05-29T08:17:57.482Z,3.43
2018-05-29T08:20:24.913Z,3.93
2018-05-29T08:22:52.357Z,4.27
2018-05-29T08:25:19.795Z,3.40
2018-05-29T08:27:48.007Z,3.63
2018-05-29T08:30:16.207Z,3.73
2018-05-29T08:32:44.413Z,5.33
2018-05-29T08:35:11.862Z,4.80
2018-05-29T08:37:39.302Z,3.43
2018-05-29T08:40:06.734Z,3.93
2018-05-29T08:42:34.184Z,3.33
2018-05-29T08:45:01.622Z,4.00
2018-05-29T08:47:29.838Z,4.47
2018-05-29T08:49:57.274Z,3.75
2018-05-29T08:52:24.708Z,3.65
2018-05-29T08:54:52.151Z,3.30
2018-05-29T08:57:20.370Z,3.80
2018-05-29T08:59:48.577Z,3.87
2018-05-29T09:02:16.023Z,4.37
2018-05-29T09:04:43.465Z,3.80
2018-05-29T09:07:10.906Z,4.18
2018-05-29T09:09:39.122Z,4.10
2018-05-29T09:12:06.566Z,4.20
2018-05-29T09:14:34.010Z,4.10
2018-05-29T09:17:01.442Z,3.70
2018-05-29T09:19:29.682Z,3.30
2018-05-29T09:21:57.114Z,4.27
2018-05-29T09:24:25.322Z,4.67
2018-05-29T09:26:53.519Z,4.20
2018-05-29T09:29:21.025Z,4.50
2018-05-29T09:31:48.453Z,3.83
2018-05-29T09:34:15.898Z,3.50
2018-05-29T09:36:43.338Z,4.10
2018-05-29T09:39:11.554Z,3.80
2018-05-29T09:41:38.990Z,3.47
2018-05-29T09:44:06.431Z,3.63
2018-05-29T09:46:33.878Z,4.00
2018-05-29T09:49:02.098Z,3.20
2018-05-29T09:51:29.538Z,3.60
2018-05-29T09:53:56.969Z,3.97
2018-05-29T09:56:24.419Z,3.20
2018-05-29T09:58:52.621Z,3.70
2018-05-29T10:01:20.831Z,3.87
2018-05-29T10:03:48.287Z,4.27
2018-05-29T10:06:15.718Z,4.10
2018-05-29T10:08:43.153Z,4.03
2018-05-29T10:11:10.595Z,4.50
2018-05-29T10:13:38.026Z,3.93
2018-05-29T10:16:06.235Z,4.17
2018-05-29T10:18:33.678Z,4.40
2018-05-29T10:21:01.121Z,3.80
2018-05-29T10:23:28.573Z,4.20
2018-05-29T10:25:56.759Z,3.53
2018-05-29T10:28:24.974Z,4.10
2018-05-29T10:30:53.205Z,3.93
2018-05-29T10:33:20.613Z,4.33
2018-05-29T10:35:48.051Z,3.43
2018-05-29T10:38:15.501Z,3.90
2018-05-29T10:40:42.931Z,3.97
2018-05-29T10:43:10.378Z,4.00
2018-05-29T10:45:37.809Z,3.93
2018-05-29T10:48:05.255Z,3.97
2018-05-29T10:50:32.686Z,3.77
2018-05-29T10:53:00.126Z,3.20
2018-05-29T10:55:27.562Z,3.80
2018-05-29T10:57:55.769Z,4.93
2018-05-29T11:00:23.975Z,5.10
2018-05-29T11:02:52.185Z,4.80
2018-05-29T11:05:19.626Z,4.83
2018-05-29T11:07:47.074Z,4.53
2018-05-29T11:10:14.506Z,4.30
2018-05-29T11:12:41.937Z,4.40
2018-05-29T11:15:09.384Z,3.47
2018-05-29T11:17:37.596Z,4.37
2018-05-29T11:20:05.072Z,4.13
2018-05-29T11:22:32.465Z,4.43
2018-05-29T11:24:59.914Z,4.60
2018-05-29T11:27:28.123Z,4.90
2018-05-29T11:29:56.325Z,4.67
2018-05-29T11:32:23.757Z,4.33
2018-05-29T11:34:51.206Z,4.50
2018-05-29T11:37:18.646Z,3.90
2018-05-29T11:39:46.090Z,4.67
2018-05-29T11:42:13.526Z,4.30
2018-05-29T11:44:41.742Z,5.03
2018-05-29T11:47:09.946Z,4.40
2018-05-29T11:49:37.411Z,5.62
2018-05-29T11:52:05.614Z,4.50
2018-05-29T11:54:33.819Z,4.17
2018-05-29T11:57:02.026Z,5.40
2018-05-29T11:59:29.466Z,4.80
2018-05-29T12:01:56.907Z,4.27
2018-05-29T12:04:24.349Z,3.80
2018-05-29T12:06:51.781Z,4.87
2018-05-29T12:09:19.217Z,5.40
2018-05-29T12:11:47.491Z,5.00
2018-05-29T12:14:14.914Z,4.10
2018-05-29T12:16:42.357Z,4.30
2018-05-29T12:19:09.797Z,5.17
2018-05-29T12:21:37.245Z,3.70
2018-05-29T12:24:05.433Z,4.33
2018-05-29T12:26:33.646Z,4.30
2018-05-29T12:29:01.842Z,4.50
2018-05-29T12:31:29.301Z,4.67
2018-05-29T12:33:56.733Z,4.50
2018-05-29T12:36:24.177Z,4.50
2018-05-29T12:38:52.386Z,4.17
2018-05-29T12:41:19.819Z,4.27
2018-05-29T12:43:47.267Z,7.30
2018-05-29T12:46:14.779Z,4.40
2018-05-29T12:48:42.154Z,4.40
2018-05-29T12:51:09.593Z,4.90
2018-05-29T12:53:37.793Z,4.87
2018-05-29T12:56:05.992Z,4.80
2018-05-29T12:58:34.197Z,4.53
2018-05-29T13:01:01.638Z,4.73
2018-05-29T13:03:29.074Z,4.50
2018-05-29T13:05:56.510Z,3.87
2018-05-29T13:08:23.950Z,5.20
2018-05-29T13:10:51.390Z,4.83
2018-05-29T13:13:19.598Z,4.50
2018-05-29T13:15:47.040Z,4.63
2018-05-29T13:18:14.478Z,4.40
2018-05-29T13:20:41.911Z,4.60
2018-05-29T13:23:09.367Z,4.50
2018-05-29T13:25:36.797Z,3.90
2018-05-29T13:28:05.043Z,4.40
2018-05-29T13:30:32.473Z,5.00
2018-05-29T13:33:00.674Z,5.13
2018-05-29T13:35:28.891Z,4.63
2018-05-29T13:37:56.322Z,3.93
2018-05-29T13:40:23.761Z,4.60
2018-05-29T13:42:51.189Z,4.20
2018-05-29T13:45:18.638Z,4.90
2018-05-29T13:47:46.074Z,5.73
2018-05-29T13:50:14.290Z,4.60
2018-05-29T13:52:41.722Z,4.50
2018-05-29T13:55:09.964Z,4.97
2018-05-29T13:57:37.397Z,3.80
2018-05-29T14:00:04.833Z,4.50
2018-05-29T14:02:32.275Z,5.13
2018-05-29T14:05:00.486Z,4.70
2018-05-29T14:07:27.918Z,5.03
2018-05-29T14:09:55.365Z,5.83
2018-05-29T14:12:22.804Z,4.60
2018-05-29T14:14:50.251Z,5.00
2018-05-29T14:17:17.676Z,4.47
2018-05-29T14:19:45.885Z,4.60
2018-05-29T14:22:14.086Z,4.70
2018-05-29T14:24:41.537Z,3.77
2018-05-29T14:27:08.969Z,3.90
2018-05-29T14:29:36.430Z,4.20
2018-05-29T14:32:04.625Z,4.27
2018-05-29T14:34:32.821Z,4.20
2018-05-29T14:37:01.034Z,4.67
2018-05-29T14:39:29.233Z,4.70
2018-05-29T14:41:57.447Z,4.27
2018-05-29T14:44:25.651Z,4.50
2018-05-29T14:46:53.090Z,3.90
2018-05-29T14:49:20.531Z,3.97
2018-05-29T14:51:48.733Z,4.37
2018-05-29T14:54:16.170Z,4.17
2018-05-29T14:56:43.614Z,4.93
2018-05-29T14:59:11.054Z,5.37
2018-05-29T15:01:39.261Z,4.43
2018-05-29T15:04:07.475Z,4.53
2018-05-29T15:06:35.686Z,3.50
2018-05-29T15:09:03.165Z,4.90
2018-05-29T15:11:30.572Z,3.77
2018-05-29T15:13:58.010Z,3.67
2018-05-29T15:16:26.240Z,3.67
2018-05-29T15:18:53.675Z,3.80
2018-05-29T15:21:21.119Z,3.53
2018-05-29T15:23:48.554Z,3.47
2018-05-29T15:26:16.758Z,3.83
2018-05-29T15:28:44.970Z,4.10
2018-05-29T15:31:12.397Z,4.27
2018-05-29T15:33:39.842Z,3.50
2018-05-29T15:36:07.269Z,3.93
2018-05-29T15:38:34.713Z,3.90
2018-05-29T15:41:02.150Z,3.90
2018-05-29T15:43:30.371Z,3.77
2018-05-29T15:45:57.798Z,4.33
2018-05-29T15:48:25.237Z,4.20
2018-05-29T15:50:52.670Z,4.33
2018-05-29T15:53:20.160Z,5.00
2018-05-29T15:55:47.559Z,4.33
2018-05-29T15:58:15.770Z,4.03
2018-05-29T16:00:43.206Z,3.90
2018-05-29T16:03:10.646Z,3.55
2018-05-29T16:05:38.082Z,3.58
2018-05-29T16:08:06.302Z,3.50
2018-05-29T16:10:33.733Z,3.20
2018-05-29T16:13:01.173Z,3.00
2018-05-29T16:15:28.613Z,3.00
2018-05-29T16:17:56.042Z,2.90
2018-05-29T16:20:23.494Z,2.83
2018-05-29T16:22:51.707Z,2.70
2018-05-29T16:25:19.154Z,2.95
2018-05-29T16:27:46.593Z,3.20
2018-05-29T16:30:14.042Z,2.90
2018-05-29T16:32:42.243Z,2.90
2018-05-29T16:35:09.696Z,3.05
2018-05-29T16:37:37.129Z,3.45
2018-05-29T16:40:04.578Z,3.10
2018-05-29T16:42:32.786Z,3.50
2018-05-29T16:45:00.245Z,3.00
2018-05-29T16:47:28.445Z,3.20
2018-05-29T16:49:56.650Z,2.93
2018-05-29T16:52:24.863Z,2.80
2018-05-29T16:54:52.318Z,3.90
2018-05-29T16:57:21.350Z,3.20
2018-05-29T16:59:49.559Z,3.90
2018-05-29T17:02:17.769Z,3.33
2018-05-29T17:04:45.241Z,3.70
2018-05-29T17:07:13.435Z,4.70
2018-05-29T17:09:41.651Z,3.90
2018-05-29T17:12:09.093Z,4.85
2018-05-29T17:14:36.518Z,5.50
2018-05-29T17:17:03.965Z,5.70
2018-05-29T17:19:32.186Z,6.00
2018-05-29T17:21:59.639Z,5.70
2018-05-29T17:24:27.094Z,6.00
2018-05-29T17:26:54.546Z,5.93
2018-05-29T17:29:21.985Z,5.53
2018-05-29T17:31:50.215Z,6.43
2018-05-29T17:34:18.394Z,5.97
2018-05-29T17:36:46.615Z,6.20
2018-05-29T17:39:14.062Z,5.90
2018-05-29T17:41:42.274Z,6.72
2018-05-29T17:44:10.477Z,6.20
2018-05-29T17:46:37.923Z,6.68
2018-05-29T17:49:05.364Z,6.60
2018-05-29T17:51:32.819Z,7.55
2018-05-29T17:54:01.016Z,7.53
2018-05-29T17:56:29.265Z,8.30
2018-05-29T17:58:56.719Z,9.10
2018-05-29T18:01:24.166Z,8.52
2018-05-29T18:03:52.383Z,8.20
2018-05-29T18:06:19.813Z,8.63
2018-05-29T18:08:47.263Z,7.97
2018-05-29T18:11:14.703Z,8.10
2018-05-29T18:13:42.914Z,8.55
2018-05-29T18:16:11.127Z,9.23
2018-05-29T18:18:38.610Z,7.97
2018-05-29T18:21:06.058Z,8.27
2018-05-29T18:23:34.278Z,8.57
2018-05-29T18:26:02.478Z,8.30
2018-05-29T18:28:29.926Z,9.10
2018-05-29T18:30:57.367Z,9.02
2018-05-29T18:33:24.814Z,7.93
2018-05-29T18:35:53.018Z,8.50
2018-05-29T18:38:20.457Z,8.00
2018-05-29T18:40:47.902Z,7.60
2018-05-29T18:43:15.355Z,8.43
2018-05-29T18:45:43.593Z,8.90
2018-05-29T18:48:11.022Z,7.90
2018-05-29T18:50:39.221Z,8.85
2018-05-29T18:53:07.430Z,8.37
2018-05-29T18:55:34.877Z,9.45
2018-05-29T18:58:02.333Z,8.05
2018-05-29T19:00:29.766Z,9.00
2018-05-29T19:02:57.206Z,8.65
2018-05-29T19:05:24.655Z,8.40
2018-05-29T19:07:52.090Z,8.50
2018-05-29T19:10:19.542Z,9.00
2018-05-29T19:12:46.981Z,8.35
2018-05-29T19:15:14.425Z,8.77
2018-05-29T19:17:41.861Z,9.05
2018-05-29T19:20:09.380Z,8.95
2018-05-29T19:22:36.806Z,8.23
2018-05-29T19:25:04.262Z,9.10
2018-05-29T19:27:31.693Z,9.30
2018-05-29T19:29:59.147Z,8.18
2018-05-29T19:32:26.580Z,9.18
2018-05-29T19:34:54.026Z,9.13
2018-05-29T19:37:21.466Z,8.90
2018-05-29T19:39:48.905Z,9.18
2018-05-29T19:42:16.341Z,8.80
2018-05-29T19:44:44.576Z,8.98
2018-05-29T19:47:11.990Z,8.80
2018-05-29T19:49:39.430Z,9.25
2018-05-29T19:52:06.878Z,8.93
2018-05-29T19:54:35.082Z,9.05
2018-05-29T19:57:03.301Z,9.23
2018-05-29T19:59:30.749Z,9.30
2018-05-29T20:01:58.963Z,9.38
2018-05-29T20:04:27.166Z,9.13
2018-05-29T20:06:55.392Z,9.95
2018-05-29T20:09:22.810Z,9.50
2018-05-29T20:11:50.262Z,8.50
2018-05-29T20:14:17.707Z,9.05
2018-05-29T20:16:45.921Z,8.85
2018-05-29T20:19:13.365Z,9.40
2018-05-29T20:21:40.825Z,10.15
2018-05-29T20:24:08.274Z,9.80
2018-05-29T20:26:35.738Z,10.05
2018-05-29T20:29:03.208Z,10.30
2018-05-29T20:31:31.488Z,9.57
2018-05-29T20:33:58.850Z,9.50
2018-05-29T20:36:26.297Z,10.30
2018-05-29T20:38:53.739Z,10.60
2018-05-29T20:41:21.954Z,11.02
2018-05-29T20:43:49.405Z,9.60
2018-05-29T20:46:16.849Z,10.50
2018-05-29T20:48:44.294Z,10.65
2018-05-29T20:51:11.733Z,9.90
2018-05-29T20:53:39.193Z,10.50
2018-05-29T20:56:06.645Z,9.95
2018-05-29T20:58:34.106Z,10.38
2018-05-29T21:01:02.321Z,10.38
2018-05-29T21:03:29.757Z,9.53
2018-05-29T21:05:57.202Z,10.53
2018-05-29T21:08:24.654Z,10.25
2018-05-29T21:10:52.866Z,10.15
2018-05-29T21:13:20.313Z,10.00
2018-05-29T21:15:47.759Z,10.45
2018-05-29T21:18:15.207Z,10.30
2018-05-29T21:20:42.646Z,9.13
2018-05-29T21:23:10.106Z,10.20
2018-05-29T21:25:37.550Z,10.37
2018-05-29T21:28:05.002Z,10.10
2018-05-29T21:30:33.219Z,9.30
2018-05-29T21:33:01.423Z,9.93
2018-05-29T21:35:28.862Z,10.18
2018-05-29T21:37:56.309Z,9.70
2018-05-29T21:40:23.754Z,9.80
2018-05-29T21:42:51.970Z,8.95
2018-05-29T21:45:19.405Z,9.00
2018-05-29T21:47:46.870Z,7.97
2018-05-29T21:50:14.314Z,8.27
2018-05-29T21:52:41.759Z,8.45
2018-05-29T21:55:09.202Z,7.97
2018-05-29T21:57:36.637Z,8.25
2018-05-29T22:00:04.942Z,8.43
2018-05-29T22:02:32.351Z,9.00
2018-05-29T22:04:59.794Z,8.20
2018-05-29T22:07:28.030Z,8.82
2018-05-29T22:09:55.481Z,9.00
2018-05-29T22:12:23.698Z,8.40
2018-05-29T22:14:51.184Z,9.48
2018-05-29T22:17:19.354Z,8.80
2018-05-29T22:19:47.563Z,8.70
2018-05-29T22:22:15.762Z,8.70
2018-05-29T22:24:43.208Z,9.15
2018-05-29T22:27:10.670Z,9.40
2018-05-29T22:29:38.102Z,8.27
2018-05-29T22:32:05.537Z,8.27
2018-05-29T22:34:32.986Z,8.50
2018-05-29T22:37:00.442Z,8.90
2018-05-29T22:39:28.641Z,8.27
2018-05-29T22:41:56.125Z,8.25
2018-05-29T22:44:24.346Z,8.30
2018-05-29T22:46:51.902Z,8.40
2018-05-29T22:49:19.346Z,8.40
2018-05-29T22:51:46.790Z,8.00
2018-05-29T22:54:14.234Z,8.35
2018-05-29T22:56:42.448Z,9.15
2018-05-29T22:59:10.657Z,9.10
2018-05-29T23:01:38.097Z,8.45
2018-05-29T23:04:05.533Z,8.30
2018-05-29T23:06:32.993Z,8.55
2018-05-29T23:09:00.438Z,8.70
2018-05-29T23:11:27.874Z,8.25
2018-05-29T23:13:55.317Z,8.00
2018-05-29T23:16:23.521Z,8.80
2018-05-29T23:18:51.746Z,8.77
2018-05-29T23:21:19.193Z,8.05
2018-05-29T23:23:47.397Z,9.35
2018-05-29T23:26:15.606Z,9.15
2018-05-29T23:28:43.809Z,9.07
2018-05-29T23:31:11.246Z,8.95
2018-05-29T23:33:38.690Z,8.93
2018-05-29T23:36:06.135Z,9.30
2018-05-29T23:38:34.348Z,9.77
2018-05-29T23:41:02.554Z,9.23
2018-05-29T23:43:29.997Z,9.35
2018-05-29T23:45:57.441Z,9.70
2018-05-29T23:48:24.910Z,10.00
2018-05-29T23:50:52.332Z,9.45
2018-05-29T23:53:19.782Z,10.27
2018-05-29T23:55:47.222Z,10.20
2018-05-29T23:58:15.438Z,10.27
